Roseau, Minnesota
Current Conditions -  °F | °C
As of 11:14 AM on Wednesday 26 Nov 2014 (Local Time) from KROX Reporting Station
Clear Clear  
Wind Chill: -12°   Ceiling: Unl
Heat Index:   Visibility: 10mi
Dew Point: -9°   Wind: 6mph
Humidity: 66%   Direction: 350°N
Pressure: 30.39"   Gusts: NA
Location:  48.85°N, 95.76°W
Report Text: KROX 261714Z AUTO 35005KT 10SM CLR M18/M23 A3039 RMK AO2
Loading
Personal Weather Stations






























Interactive Weather Map New forecast layout! Learn more

10-Day Weather Forecast

Advertisements
Track Severe Weather on mobile